createdAt,value
2019-02-23T00:00:13.451Z,5.94
2019-02-23T00:01:13.446Z,5.97
2019-02-23T00:02:13.437Z,5.94
2019-02-23T00:03:13.432Z,6.02
2019-02-23T00:04:13.424Z,6.04
2019-02-23T00:05:13.417Z,5.99
2019-02-23T00:06:13.410Z,5.97
2019-02-23T00:07:13.405Z,5.99
2019-02-23T00:08:13.398Z,5.91
2019-02-23T00:09:13.390Z,5.84
2019-02-23T00:10:13.384Z,5.83
2019-02-23T00:11:13.377Z,5.97
2019-02-23T00:12:13.372Z,5.90
2019-02-23T00:13:13.364Z,5.86
2019-02-23T00:14:13.358Z,5.89
2019-02-23T00:15:13.350Z,5.82
2019-02-23T00:16:13.344Z,5.86
2019-02-23T00:17:13.338Z,5.89
2019-02-23T00:18:13.335Z,5.84
2019-02-23T00:19:24.142Z,5.91
2019-02-23T00:20:13.318Z,5.90
2019-02-23T00:21:13.311Z,5.82
2019-02-23T00:22:13.303Z,5.82
2019-02-23T00:23:13.296Z,5.82
2019-02-23T00:24:13.290Z,5.75
2019-02-23T00:25:13.283Z,5.76
2019-02-23T00:26:13.277Z,5.64
2019-02-23T00:27:13.272Z,5.68
2019-02-23T00:28:13.263Z,5.61
2019-02-23T00:29:13.257Z,5.61
2019-02-23T00:30:13.251Z,5.57
2019-02-23T00:31:13.245Z,5.59
2019-02-23T00:32:13.236Z,5.56
2019-02-23T00:33:13.229Z,5.51
2019-02-23T00:34:13.265Z,5.51
2019-02-23T00:35:13.216Z,5.51
2019-02-23T00:36:13.208Z,5.48
2019-02-23T00:37:13.202Z,5.48
2019-02-23T00:38:13.195Z,5.50
2019-02-23T00:39:13.189Z,5.47
2019-02-23T00:40:13.183Z,5.54
2019-02-23T00:41:13.174Z,5.54
2019-02-23T00:42:13.169Z,5.53
2019-02-23T00:43:13.161Z,5.46
2019-02-23T00:44:13.154Z,5.51
2019-02-23T00:45:13.148Z,5.43
2019-02-23T00:46:13.142Z,5.46
2019-02-23T00:47:13.135Z,5.43
2019-02-23T00:48:13.127Z,5.47
2019-02-23T00:49:13.120Z,5.43
2019-02-23T00:50:13.114Z,5.46
2019-02-23T00:51:13.108Z,5.47
2019-02-23T00:52:13.100Z,5.44
2019-02-23T00:53:13.095Z,5.46
2019-02-23T00:54:13.086Z,5.36
2019-02-23T00:55:13.081Z,5.44
2019-02-23T00:56:13.073Z,5.46
2019-02-23T00:57:13.065Z,5.43
2019-02-23T00:58:13.058Z,5.39
2019-02-23T00:59:13.053Z,5.39
2019-02-23T01:00:13.044Z,5.44
2019-02-23T01:01:13.039Z,5.44
2019-02-23T01:02:13.035Z,5.39
2019-02-23T01:03:13.025Z,5.41
2019-02-23T01:04:13.018Z,5.38
2019-02-23T01:05:13.011Z,5.33
2019-02-23T01:06:13.005Z,5.29
2019-02-23T01:07:12.999Z,5.36
2019-02-23T01:08:12.990Z,5.36
2019-02-23T01:09:12.985Z,5.36
2019-02-23T01:10:12.977Z,5.32
2019-02-23T01:11:12.970Z,5.30
2019-02-23T01:12:12.961Z,5.33
2019-02-23T01:13:12.955Z,5.32
2019-02-23T01:14:12.950Z,5.29
2019-02-23T01:15:12.941Z,5.32
2019-02-23T01:16:12.934Z,5.21
2019-02-23T01:17:12.927Z,5.33
2019-02-23T01:18:12.921Z,5.29
2019-02-23T01:19:12.914Z,5.33
2019-02-23T01:20:12.906Z,5.30
2019-02-23T01:21:12.900Z,5.28
2019-02-23T01:22:12.897Z,5.28
2019-02-23T01:23:12.887Z,5.25
2019-02-23T01:24:12.878Z,5.17
2019-02-23T01:25:12.872Z,5.23
2019-02-23T01:26:12.865Z,5.20
2019-02-23T01:27:12.858Z,5.15
2019-02-23T01:28:12.850Z,5.18
2019-02-23T01:29:12.846Z,5.17
2019-02-23T01:30:12.906Z,5.21
2019-02-23T01:31:12.830Z,5.11
2019-02-23T01:32:12.822Z,5.11
2019-02-23T01:33:12.815Z,5.14
2019-02-23T01:34:12.808Z,5.11
2019-02-23T01:35:12.802Z,5.12
2019-02-23T01:36:12.795Z,5.17
2019-02-23T01:37:12.789Z,5.17
2019-02-23T01:38:12.781Z,5.12
2019-02-23T01:39:12.776Z,5.12
2019-02-23T01:40:12.772Z,5.10
2019-02-23T01:41:12.761Z,5.08
2019-02-23T01:42:12.754Z,5.07
2019-02-23T01:43:12.748Z,5.11
2019-02-23T01:44:12.738Z,5.12
2019-02-23T01:45:12.734Z,5.07
2019-02-23T01:46:12.724Z,5.15
2019-02-23T01:47:12.717Z,5.02
2019-02-23T01:48:12.710Z,5.04
2019-02-23T01:49:12.703Z,5.04
2019-02-23T01:50:12.697Z,4.97
2019-02-23T01:51:12.690Z,5.02
2019-02-23T01:52:12.682Z,4.99
2019-02-23T01:53:12.676Z,5.04
2019-02-23T01:54:12.667Z,4.99
2019-02-23T01:55:12.662Z,4.92
2019-02-23T01:56:12.656Z,4.99
2019-02-23T01:57:12.647Z,4.92
2019-02-23T01:58:12.640Z,4.94
2019-02-23T01:59:12.634Z,5.00
2019-02-23T02:00:12.625Z,4.97
2019-02-23T02:01:12.617Z,4.97
2019-02-23T02:02:12.611Z,4.93
2019-02-23T02:03:12.611Z,4.89
2019-02-23T02:04:12.597Z,4.93
2019-02-23T02:05:12.588Z,4.94
2019-02-23T02:06:12.584Z,4.96
2019-02-23T02:07:12.576Z,4.96
2019-02-23T02:08:12.568Z,4.89
2019-02-23T02:09:12.562Z,4.89
2019-02-23T02:10:12.555Z,4.94
2019-02-23T02:11:12.547Z,4.99
2019-02-23T02:12:12.538Z,4.92
2019-02-23T02:13:12.533Z,4.87
2019-02-23T02:14:12.524Z,4.96
2019-02-23T02:15:12.517Z,4.89
2019-02-23T02:16:12.516Z,4.89
2019-02-23T02:17:12.509Z,4.80
2019-02-23T02:18:12.497Z,4.77
2019-02-23T02:19:12.490Z,4.77
2019-02-23T02:20:12.482Z,4.80
2019-02-23T02:21:12.475Z,4.80
2019-02-23T02:22:12.468Z,4.75
2019-02-23T02:23:12.462Z,4.84
2019-02-23T02:24:12.453Z,4.80
2019-02-23T02:25:12.447Z,4.73
2019-02-23T02:26:12.439Z,4.82
2019-02-23T02:27:12.433Z,4.80
2019-02-23T02:28:12.424Z,4.89
2019-02-23T02:29:12.418Z,4.86
2019-02-23T02:30:12.524Z,4.77
2019-02-23T02:31:12.403Z,4.80
2019-02-23T02:32:12.396Z,4.71
2019-02-23T02:33:12.388Z,4.80
2019-02-23T02:34:12.383Z,4.77
2019-02-23T02:35:12.376Z,4.74
2019-02-23T02:36:12.367Z,4.78
2019-02-23T02:37:12.359Z,4.77
2019-02-23T02:38:12.353Z,4.80
2019-02-23T02:39:12.345Z,4.82
2019-02-23T02:40:12.340Z,4.73
2019-02-23T02:41:12.331Z,4.74
2019-02-23T02:42:12.323Z,4.67
2019-02-23T02:43:12.317Z,4.82
2019-02-23T02:44:12.307Z,4.74
2019-02-23T02:45:12.300Z,4.77
2019-02-23T02:46:12.293Z,4.78
2019-02-23T02:47:12.288Z,4.71
2019-02-23T02:48:12.279Z,4.78
2019-02-23T02:49:12.271Z,4.74
2019-02-23T02:50:23.803Z,4.73
2019-02-23T02:51:12.261Z,4.78
2019-02-23T02:52:12.251Z,4.74
2019-02-23T02:53:12.242Z,4.75
2019-02-23T02:54:12.235Z,4.74
2019-02-23T02:55:12.234Z,4.78
2019-02-23T02:56:12.219Z,4.75
2019-02-23T02:57:12.213Z,4.77
2019-02-23T02:58:12.206Z,4.77
2019-02-23T02:59:12.199Z,4.70
2019-02-23T03:00:12.194Z,4.74
2019-02-23T03:01:12.189Z,4.74
2019-02-23T03:02:12.179Z,4.77
2019-02-23T03:03:12.179Z,4.67
2019-02-23T03:04:12.163Z,4.71
2019-02-23T03:05:12.156Z,4.75
2019-02-23T03:06:12.147Z,4.78
2019-02-23T03:07:12.140Z,4.71
2019-02-23T03:08:12.134Z,4.77
2019-02-23T03:09:12.127Z,4.86
2019-02-23T03:10:12.118Z,4.82
2019-02-23T03:11:12.110Z,4.78
2019-02-23T03:12:12.103Z,4.74
2019-02-23T03:13:12.096Z,4.70
2019-02-23T03:14:12.183Z,4.63
2019-02-23T03:15:12.081Z,4.66
2019-02-23T03:16:12.075Z,4.63
2019-02-23T03:17:12.068Z,4.62
2019-02-23T03:18:12.059Z,4.70
2019-02-23T03:19:12.053Z,4.67
2019-02-23T03:20:12.043Z,4.75
2019-02-23T03:21:12.037Z,4.73
2019-02-23T03:22:12.032Z,4.66
2019-02-23T03:23:12.023Z,4.58
2019-02-23T03:24:12.015Z,4.58
2019-02-23T03:25:12.008Z,4.59
2019-02-23T03:26:12.002Z,4.59
2019-02-23T03:27:11.994Z,4.55
2019-02-23T03:28:11.990Z,4.60
2019-02-23T03:29:11.984Z,4.55
2019-02-23T03:30:12.069Z,4.63
2019-02-23T03:31:11.965Z,4.59
2019-02-23T03:32:11.959Z,4.67
2019-02-23T03:33:11.949Z,4.52
2019-02-23T03:34:11.946Z,4.58
2019-02-23T03:35:11.939Z,4.60
2019-02-23T03:36:11.926Z,4.45
2019-02-23T03:37:11.919Z,4.44
2019-02-23T03:38:11.921Z,4.48
2019-02-23T03:39:11.903Z,4.55
2019-02-23T03:40:11.896Z,4.53
2019-02-23T03:41:11.887Z,4.44
2019-02-23T03:42:11.882Z,4.44
2019-02-23T03:43:11.874Z,4.37
2019-02-23T03:44:11.865Z,4.34
2019-02-23T03:45:11.861Z,4.24
2019-02-23T03:46:11.851Z,4.30
2019-02-23T03:47:11.844Z,4.31
2019-02-23T03:48:11.835Z,4.22
2019-02-23T03:49:11.828Z,4.24
2019-02-23T03:50:11.820Z,4.19
2019-02-23T03:51:11.816Z,4.06
2019-02-23T03:52:11.805Z,4.08
2019-02-23T03:53:11.803Z,4.04
2019-02-23T03:54:11.790Z,3.98
2019-02-23T03:55:11.785Z,3.98
2019-02-23T03:56:11.777Z,3.98
2019-02-23T03:57:11.767Z,3.94
2019-02-23T03:58:11.761Z,3.94
2019-02-23T03:59:11.753Z,3.98
2019-02-23T04:00:11.745Z,4.01
2019-02-23T04:01:11.738Z,3.96
2019-02-23T04:02:11.730Z,3.99
2019-02-23T04:03:11.725Z,3.95
2019-02-23T04:04:11.713Z,3.94
2019-02-23T04:05:11.707Z,4.01
2019-02-23T04:06:11.700Z,3.98
2019-02-23T04:07:11.695Z,4.01
2019-02-23T04:08:11.685Z,4.05
2019-02-23T04:09:11.676Z,4.08
2019-02-23T04:10:11.848Z,4.01
2019-02-23T04:11:11.660Z,3.99
2019-02-23T04:12:11.653Z,3.96
2019-02-23T04:13:11.647Z,3.95
2019-02-23T04:14:11.640Z,3.98
2019-02-23T04:15:11.638Z,3.92
2019-02-23T04:16:11.628Z,3.95
2019-02-23T04:17:11.616Z,3.87
2019-02-23T04:18:11.609Z,3.87
2019-02-23T04:19:11.602Z,3.80
2019-02-23T04:20:11.592Z,3.96
2019-02-23T04:21:11.585Z,3.95
2019-02-23T04:22:11.579Z,3.86
2019-02-23T04:23:11.573Z,3.94
2019-02-23T04:24:11.561Z,3.88
2019-02-23T04:25:11.554Z,3.73
2019-02-23T04:26:11.547Z,3.80
2019-02-23T04:27:11.540Z,4.02
2019-02-23T04:28:11.530Z,3.95
2019-02-23T04:29:11.525Z,4.02
2019-02-23T04:30:11.517Z,4.14
2019-02-23T04:31:11.511Z,4.05
2019-02-23T04:32:11.502Z,4.05
2019-02-23T04:33:11.493Z,4.08
2019-02-23T04:34:11.484Z,4.10
2019-02-23T04:35:11.479Z,4.02
2019-02-23T04:36:11.469Z,3.96
2019-02-23T04:37:11.461Z,3.99
2019-02-23T04:38:11.454Z,3.92
2019-02-23T04:39:11.446Z,4.06
2019-02-23T04:40:11.438Z,3.98
2019-02-23T04:41:11.433Z,4.05
2019-02-23T04:42:11.423Z,3.98
2019-02-23T04:43:11.415Z,4.02
2019-02-23T04:44:11.406Z,4.13
2019-02-23T04:45:11.400Z,4.10
2019-02-23T04:46:11.391Z,4.01
2019-02-23T04:47:11.387Z,4.10
2019-02-23T04:48:11.377Z,4.02
2019-02-23T04:49:11.371Z,4.04
2019-02-23T04:50:11.365Z,4.20
2019-02-23T04:51:14.428Z,4.04
2019-02-23T04:52:11.344Z,4.05
2019-02-23T04:53:11.335Z,4.20
2019-02-23T04:54:11.334Z,4.17
2019-02-23T04:55:11.321Z,4.16
2019-02-23T04:56:11.313Z,4.02
2019-02-23T04:57:11.306Z,4.08
2019-02-23T04:58:11.297Z,4.02
2019-02-23T04:59:11.291Z,4.01
2019-02-23T05:00:11.284Z,3.94
2019-02-23T05:01:11.276Z,3.98
2019-02-23T05:02:11.267Z,3.94
2019-02-23T05:03:11.260Z,3.94
2019-02-23T05:04:11.251Z,3.87
2019-02-23T05:05:11.243Z,3.87
2019-02-23T05:06:11.236Z,3.81
2019-02-23T05:07:11.228Z,3.84
2019-02-23T05:08:11.218Z,3.78
2019-02-23T05:09:11.213Z,3.80
2019-02-23T05:10:11.203Z,3.73
2019-02-23T05:11:11.197Z,3.74
2019-02-23T05:12:11.196Z,3.81
2019-02-23T05:13:11.182Z,3.91
2019-02-23T05:14:11.174Z,3.95
2019-02-23T05:15:11.166Z,3.96
2019-02-23T05:16:11.157Z,3.96
2019-02-23T05:17:11.149Z,3.94
2019-02-23T05:18:11.142Z,3.91
2019-02-23T05:19:11.134Z,3.96
2019-02-23T05:20:11.127Z,3.91
2019-02-23T05:21:11.124Z,3.86
2019-02-23T05:22:11.109Z,3.86
2019-02-23T05:23:11.101Z,3.92
2019-02-23T05:24:11.095Z,3.92
2019-02-23T05:25:11.087Z,3.87
2019-02-23T05:26:11.079Z,3.80
2019-02-23T05:27:11.146Z,3.80
2019-02-23T05:28:11.062Z,3.80
2019-02-23T05:29:11.054Z,3.84
2019-02-23T05:30:11.048Z,3.80
2019-02-23T05:31:11.040Z,3.78
2019-02-23T05:32:11.031Z,3.81
2019-02-23T05:33:11.024Z,3.83
2019-02-23T05:34:11.017Z,3.81
2019-02-23T05:35:11.015Z,3.76
2019-02-23T05:36:10.999Z,3.76
2019-02-23T05:37:10.992Z,3.65
2019-02-23T05:38:10.984Z,3.66
2019-02-23T05:39:10.977Z,3.68
2019-02-23T05:40:10.971Z,3.69
2019-02-23T05:41:10.962Z,3.73
2019-02-23T05:42:10.956Z,3.70
2019-02-23T05:43:10.949Z,3.70
2019-02-23T05:44:10.940Z,3.65
2019-02-23T05:45:10.932Z,3.60
2019-02-23T05:46:10.922Z,3.58
2019-02-23T05:47:10.915Z,3.53
2019-02-23T05:48:10.907Z,3.51
2019-02-23T05:49:10.898Z,3.50
2019-02-23T05:50:10.891Z,3.45
2019-02-23T05:51:10.882Z,3.55
2019-02-23T05:52:10.875Z,3.53
2019-02-23T05:53:10.869Z,3.62
2019-02-23T05:54:10.860Z,3.60
2019-02-23T05:55:10.856Z,3.55
2019-02-23T05:56:15.172Z,3.66
2019-02-23T05:57:10.835Z,3.63
2019-02-23T05:58:10.831Z,3.60
2019-02-23T05:59:10.820Z,3.66
2019-02-23T06:00:10.813Z,3.59
2019-02-23T06:01:10.805Z,3.68
2019-02-23T06:02:10.798Z,3.53
2019-02-23T06:03:10.789Z,3.59
2019-02-23T06:04:10.779Z,3.55
2019-02-23T06:05:10.771Z,3.55
2019-02-23T06:06:10.766Z,3.44
2019-02-23T06:07:10.757Z,3.44
2019-02-23T06:08:10.750Z,3.48
2019-02-23T06:09:10.742Z,3.51
2019-02-23T06:10:10.735Z,3.44
2019-02-23T06:11:10.726Z,3.51
2019-02-23T06:12:10.720Z,3.50
2019-02-23T06:13:10.709Z,3.51
2019-02-23T06:14:10.702Z,3.53
2019-02-23T06:15:10.697Z,3.44
2019-02-23T06:16:10.687Z,3.48
2019-02-23T06:17:10.680Z,3.48
2019-02-23T06:18:10.671Z,3.55
2019-02-23T06:19:10.664Z,3.51
2019-02-23T06:20:10.657Z,3.31
2019-02-23T06:21:10.646Z,3.44
2019-02-23T06:22:10.637Z,3.50
2019-02-23T06:23:10.633Z,3.50
2019-02-23T06:24:10.622Z,3.45
2019-02-23T06:25:10.616Z,3.42
2019-02-23T06:26:10.608Z,3.36
2019-02-23T06:27:10.599Z,3.37
2019-02-23T06:28:10.595Z,3.40
2019-02-23T06:29:10.583Z,3.36
2019-02-23T06:30:10.575Z,3.41
2019-02-23T06:31:10.566Z,3.37
2019-02-23T06:32:10.560Z,3.26
2019-02-23T06:33:10.552Z,3.31
2019-02-23T06:34:16.148Z,3.36
2019-02-23T06:35:10.538Z,3.31
2019-02-23T06:36:10.528Z,3.31
2019-02-23T06:37:10.526Z,3.29
2019-02-23T06:38:10.511Z,3.26
2019-02-23T06:39:10.501Z,3.21
2019-02-23T06:40:10.503Z,3.18
2019-02-23T06:41:10.485Z,3.18
2019-02-23T06:42:10.479Z,3.25
2019-02-23T06:43:10.471Z,3.16
2019-02-23T06:44:10.461Z,3.14
2019-02-23T06:45:10.458Z,3.23
2019-02-23T06:46:10.445Z,3.10
2019-02-23T06:47:10.440Z,3.14
2019-02-23T06:48:10.437Z,3.21
2019-02-23T06:49:10.421Z,3.14
2019-02-23T06:50:10.415Z,3.10
2019-02-23T06:51:10.408Z,3.22
2019-02-23T06:52:10.396Z,3.25
2019-02-23T06:53:10.392Z,3.16
2019-02-23T06:54:10.385Z,3.18
2019-02-23T06:55:10.373Z,3.19
2019-02-23T06:56:10.363Z,3.11
2019-02-23T06:57:10.355Z,3.21
2019-02-23T06:58:10.349Z,3.21
2019-02-23T06:59:10.344Z,3.19
2019-02-23T07:00:10.332Z,3.08
2019-02-23T07:01:10.325Z,3.07
2019-02-23T07:02:10.316Z,3.18
2019-02-23T07:03:10.309Z,3.14
2019-02-23T07:04:10.299Z,3.07
2019-02-23T07:05:10.292Z,3.05
2019-02-23T07:06:10.285Z,3.07
2019-02-23T07:07:10.277Z,3.05
2019-02-23T07:08:10.267Z,3.08
2019-02-23T07:09:10.261Z,3.08
2019-02-23T07:10:10.252Z,3.19
2019-02-23T07:11:10.243Z,3.11
2019-02-23T07:12:10.235Z,3.11
2019-02-23T07:13:10.228Z,3.13
2019-02-23T07:14:10.220Z,3.11
2019-02-23T07:15:10.211Z,3.10
2019-02-23T07:16:10.206Z,3.16
2019-02-23T07:17:10.193Z,3.07
2019-02-23T07:18:10.185Z,3.11
2019-02-23T07:19:10.177Z,3.16
2019-02-23T07:20:10.170Z,3.19
2019-02-23T07:21:10.161Z,3.22
2019-02-23T07:22:15.521Z,3.16
2019-02-23T07:23:10.146Z,3.19
2019-02-23T07:24:10.136Z,3.22
2019-02-23T07:25:10.130Z,3.22
2019-02-23T07:26:10.120Z,3.18
2019-02-23T07:27:10.112Z,3.19
2019-02-23T07:28:10.952Z,3.22
2019-02-23T07:29:10.099Z,3.26
2019-02-23T07:30:10.087Z,3.19
2019-02-23T07:31:10.081Z,3.10
2019-02-23T07:32:10.071Z,3.26
2019-02-23T07:33:10.063Z,3.13
2019-02-23T07:34:10.055Z,3.26
2019-02-23T07:35:10.051Z,3.23
2019-02-23T07:36:10.037Z,3.23
2019-02-23T07:37:10.033Z,3.25
2019-02-23T07:38:10.022Z,3.19
2019-02-23T07:39:10.019Z,3.21
2019-02-23T07:40:10.006Z,3.21
2019-02-23T07:41:09.999Z,3.29
2019-02-23T07:42:09.991Z,3.21
2019-02-23T07:43:09.983Z,3.18
2019-02-23T07:44:09.974Z,3.19
2019-02-23T07:45:09.966Z,3.31
2019-02-23T07:46:09.964Z,3.31
2019-02-23T07:47:09.950Z,3.32
2019-02-23T07:48:09.940Z,3.31
2019-02-23T07:49:09.933Z,3.32
2019-02-23T07:50:09.925Z,3.36
2019-02-23T07:51:09.917Z,3.36
2019-02-23T07:52:09.908Z,3.45
2019-02-23T07:53:09.901Z,3.47
2019-02-23T07:54:09.892Z,3.50
2019-02-23T07:55:09.885Z,3.53
2019-02-23T07:56:09.875Z,3.55
2019-02-23T07:57:09.866Z,3.55
2019-02-23T07:58:09.860Z,3.66
2019-02-23T07:59:09.851Z,3.68
2019-02-23T08:00:09.844Z,3.68
2019-02-23T08:01:09.836Z,3.68
2019-02-23T08:02:09.828Z,3.73
2019-02-23T08:03:09.822Z,3.68
2019-02-23T08:04:09.812Z,3.69
2019-02-23T08:05:09.803Z,3.69
2019-02-23T08:06:09.794Z,3.65
2019-02-23T08:07:09.787Z,3.68
2019-02-23T08:08:09.779Z,3.70
2019-02-23T08:09:09.771Z,3.73
2019-02-23T08:10:09.765Z,3.83
2019-02-23T08:11:09.755Z,3.84
2019-02-23T08:12:09.746Z,3.94
2019-02-23T08:13:09.737Z,3.88
2019-02-23T08:14:09.730Z,3.95
2019-02-23T08:15:09.725Z,3.98
2019-02-23T08:16:09.714Z,3.94
2019-02-23T08:17:09.708Z,3.96
2019-02-23T08:18:09.700Z,3.98
2019-02-23T08:19:09.692Z,3.98
2019-02-23T08:20:09.684Z,4.10
2019-02-23T08:21:09.692Z,4.04
2019-02-23T08:22:09.669Z,4.19
2019-02-23T08:23:09.660Z,4.14
2019-02-23T08:24:09.651Z,4.19
2019-02-23T08:25:09.643Z,4.24
2019-02-23T08:26:09.636Z,4.26
2019-02-23T08:27:09.628Z,4.34
2019-02-23T08:28:09.621Z,4.35
2019-02-23T08:29:09.613Z,4.38
2019-02-23T08:30:09.606Z,4.40
2019-02-23T08:31:09.598Z,4.45
2019-02-23T08:32:09.589Z,4.58
2019-02-23T08:33:09.581Z,4.60
2019-02-23T08:34:09.574Z,4.56
2019-02-23T08:35:09.566Z,4.62
2019-02-23T08:36:09.560Z,4.59
2019-02-23T08:37:09.552Z,4.70
2019-02-23T08:38:09.543Z,4.75
2019-02-23T08:39:09.537Z,4.77
2019-02-23T08:40:09.529Z,4.77
2019-02-23T08:41:09.520Z,4.74
2019-02-23T08:42:09.514Z,4.80
2019-02-23T08:43:09.507Z,4.74
2019-02-23T08:44:09.497Z,4.90
2019-02-23T08:45:09.492Z,5.02
2019-02-23T08:46:09.483Z,5.07
2019-02-23T08:47:09.476Z,5.14
2019-02-23T08:48:09.468Z,5.11
2019-02-23T08:49:09.460Z,5.17
2019-02-23T08:50:09.454Z,5.08
2019-02-23T08:51:09.456Z,5.15
2019-02-23T08:52:09.438Z,5.25
2019-02-23T08:53:09.431Z,5.21
2019-02-23T08:54:09.424Z,5.33
2019-02-23T08:55:09.418Z,5.32
2019-02-23T08:56:09.412Z,5.32
2019-02-23T08:57:09.401Z,5.33
2019-02-23T08:58:09.394Z,5.36
2019-02-23T08:59:09.389Z,5.41
2019-02-23T09:00:09.379Z,5.44
2019-02-23T09:01:09.375Z,5.36
2019-02-23T09:02:09.366Z,5.41
2019-02-23T09:03:09.358Z,5.47
2019-02-23T09:04:09.350Z,5.39
2019-02-23T09:05:09.343Z,5.47
2019-02-23T09:06:09.336Z,5.59
2019-02-23T09:07:09.330Z,5.64
2019-02-23T09:08:09.324Z,5.54
2019-02-23T09:09:09.322Z,5.66
2019-02-23T09:10:09.310Z,5.62
2019-02-23T09:11:09.303Z,5.68
2019-02-23T09:12:09.295Z,5.82
2019-02-23T09:13:09.289Z,5.76
2019-02-23T09:14:09.281Z,5.87
2019-02-23T09:15:09.276Z,5.79
2019-02-23T09:16:09.268Z,5.86
2019-02-23T09:17:09.261Z,5.87
2019-02-23T09:18:09.253Z,5.82
2019-02-23T09:19:09.245Z,5.76
2019-02-23T09:20:09.238Z,5.86
2019-02-23T09:21:09.232Z,5.87
2019-02-23T09:22:09.224Z,5.97
2019-02-23T09:23:09.219Z,6.01
2019-02-23T09:24:09.211Z,6.02
2019-02-23T09:25:09.204Z,6.01
2019-02-23T09:26:09.282Z,6.11
2019-02-23T09:27:09.263Z,6.19
2019-02-23T09:28:09.184Z,6.17
2019-02-23T09:29:09.177Z,6.24
2019-02-23T09:30:09.168Z,6.36
2019-02-23T09:31:09.163Z,6.38
2019-02-23T09:32:09.156Z,6.38
2019-02-23T09:33:09.152Z,6.46
2019-02-23T09:34:09.144Z,6.44
2019-02-23T09:35:09.151Z,6.51
2019-02-23T09:36:09.131Z,6.63
2019-02-23T09:37:09.122Z,6.70
2019-02-23T09:38:09.116Z,6.69
2019-02-23T09:39:09.109Z,6.78
2019-02-23T09:40:09.103Z,6.75
2019-02-23T09:41:09.095Z,6.77
2019-02-23T09:42:09.091Z,6.75
2019-02-23T09:43:09.084Z,6.87
2019-02-23T09:44:09.074Z,6.88
2019-02-23T09:45:09.069Z,7.07
2019-02-23T09:46:09.064Z,7.17
2019-02-23T09:47:09.056Z,7.10
2019-02-23T09:48:09.055Z,7.18
2019-02-23T09:49:09.044Z,7.24
2019-02-23T09:50:09.039Z,7.20
2019-02-23T09:51:09.032Z,7.20
2019-02-23T09:52:09.026Z,7.39
2019-02-23T09:53:11.514Z,7.50
2019-02-23T09:54:09.011Z,7.72
2019-02-23T09:55:09.006Z,8.20
2019-02-23T09:56:09.000Z,8.55
2019-02-23T09:57:08.997Z,9.08
2019-02-23T09:58:08.989Z,9.29
2019-02-23T09:59:08.984Z,9.54
2019-02-23T10:00:08.978Z,9.50
2019-02-23T10:01:08.972Z,9.68
2019-02-23T10:02:08.967Z,9.97
2019-02-23T10:03:08.963Z,9.69
2019-02-23T10:04:08.957Z,9.80
2019-02-23T10:05:08.955Z,9.92
2019-02-23T10:06:08.952Z,9.79
2019-02-23T10:07:08.950Z,9.65
2019-02-23T10:08:08.957Z,9.98
2019-02-23T10:09:08.941Z,9.72
2019-02-23T10:10:08.938Z,10.17
2019-02-23T10:11:08.933Z,10.68
2019-02-23T10:12:08.933Z,10.96
2019-02-23T10:13:08.928Z,11.44
2019-02-23T10:14:08.926Z,11.86
2019-02-23T10:15:08.924Z,11.40
2019-02-23T10:16:08.923Z,12.03
2019-02-23T10:17:09.399Z,12.46
2019-02-23T10:18:08.919Z,11.90
2019-02-23T10:19:08.917Z,11.91
2019-02-23T10:20:08.916Z,11.81
2019-02-23T10:21:08.916Z,11.80
2019-02-23T10:22:08.914Z,11.91
2019-02-23T10:23:08.913Z,11.78
2019-02-23T10:24:08.911Z,11.59
2019-02-23T10:25:08.914Z,11.91
2019-02-23T10:26:08.910Z,11.50
2019-02-23T10:27:08.911Z,11.47
2019-02-23T10:28:08.909Z,11.47
2019-02-23T10:29:08.909Z,11.14
2019-02-23T10:30:08.909Z,11.30
2019-02-23T10:31:08.910Z,11.18
2019-02-23T10:32:08.908Z,10.92
2019-02-23T10:33:08.915Z,10.92
2019-02-23T10:34:08.909Z,11.10
2019-02-23T10:35:08.912Z,11.04
2019-02-23T10:36:08.910Z,11.02
2019-02-23T10:37:08.911Z,11.17
2019-02-23T10:38:08.913Z,11.15
2019-02-23T10:39:08.913Z,10.99
2019-02-23T10:40:08.912Z,10.87
2019-02-23T10:41:08.912Z,10.61
2019-02-23T10:42:08.912Z,10.31
2019-02-23T10:43:08.913Z,10.15
2019-02-23T10:44:08.913Z,10.17
2019-02-23T10:45:08.912Z,10.26
2019-02-23T10:46:08.910Z,10.72
2019-02-23T10:47:08.914Z,10.82
2019-02-23T10:48:08.913Z,10.59
2019-02-23T10:49:08.911Z,10.57
2019-02-23T10:50:08.910Z,10.78
2019-02-23T10:51:08.921Z,10.89
2019-02-23T10:52:08.908Z,10.89
2019-02-23T10:53:08.909Z,10.76
2019-02-23T10:54:08.914Z,10.90
2019-02-23T10:55:08.908Z,10.87
2019-02-23T10:56:08.908Z,10.92
2019-02-23T10:57:08.906Z,10.75
2019-02-23T10:58:08.905Z,10.71
2019-02-23T10:59:08.905Z,10.81
2019-02-23T11:00:08.902Z,10.96
2019-02-23T11:01:08.905Z,10.89
2019-02-23T11:02:08.938Z,10.96
2019-02-23T11:03:08.901Z,11.05
2019-02-23T11:04:08.901Z,10.99
2019-02-23T11:05:08.898Z,10.96
2019-02-23T11:06:08.976Z,11.07
2019-02-23T11:07:08.897Z,11.07
2019-02-23T11:08:08.896Z,10.96
2019-02-23T11:09:08.893Z,11.02
2019-02-23T11:10:08.891Z,11.05
2019-02-23T11:11:08.891Z,11.07
2019-02-23T11:12:08.889Z,11.12
2019-02-23T11:13:08.888Z,11.41
2019-02-23T11:14:08.886Z,11.41
2019-02-23T11:15:08.884Z,11.26
2019-02-23T11:16:08.882Z,11.55
2019-02-23T11:17:08.881Z,11.55
2019-02-23T11:18:08.879Z,11.36
2019-02-23T11:19:08.877Z,11.44
2019-02-23T11:20:08.876Z,11.29
2019-02-23T11:21:08.875Z,11.12
2019-02-23T11:22:08.875Z,10.99
2019-02-23T11:23:08.873Z,11.07
2019-02-23T11:24:08.870Z,11.30
2019-02-23T11:25:08.867Z,11.23
2019-02-23T11:26:08.866Z,10.87
2019-02-23T11:27:08.868Z,10.54
2019-02-23T11:28:08.861Z,10.57
2019-02-23T11:29:08.861Z,10.67
2019-02-23T11:30:08.860Z,10.87
2019-02-23T11:31:08.857Z,11.12
2019-02-23T11:32:08.867Z,11.02
2019-02-23T11:33:08.852Z,11.00
2019-02-23T11:34:08.852Z,10.89
2019-02-23T11:35:08.849Z,10.84
2019-02-23T11:36:08.846Z,10.79
2019-02-23T11:37:08.844Z,10.90
2019-02-23T11:38:08.843Z,10.71
2019-02-23T11:39:08.840Z,10.68
2019-02-23T11:40:08.844Z,10.49
2019-02-23T11:41:08.835Z,10.48
2019-02-23T11:42:08.835Z,10.61
2019-02-23T11:43:08.837Z,10.72
2019-02-23T11:44:08.832Z,10.96
2019-02-23T11:45:08.825Z,11.15
2019-02-23T11:46:08.823Z,11.47
2019-02-23T11:47:08.820Z,11.48
2019-02-23T11:48:08.818Z,11.15
2019-02-23T11:49:08.816Z,11.10
2019-02-23T11:50:08.812Z,11.08
2019-02-23T11:51:08.813Z,10.97
2019-02-23T11:52:08.806Z,10.74
2019-02-23T11:53:08.806Z,10.64
2019-02-23T11:54:08.804Z,10.86
2019-02-23T11:55:08.803Z,11.14
2019-02-23T11:56:08.797Z,11.50
2019-02-23T11:57:08.795Z,11.50
2019-02-23T11:58:08.792Z,11.18
2019-02-23T11:59:08.788Z,11.12
2019-02-23T12:00:08.789Z,11.02
2019-02-23T12:01:08.783Z,11.04
2019-02-23T12:02:08.782Z,11.11
2019-02-23T12:03:08.778Z,11.22
2019-02-23T12:04:08.773Z,11.41
2019-02-23T12:05:08.774Z,11.54
2019-02-23T12:06:08.768Z,11.65
2019-02-23T12:07:08.765Z,11.83
2019-02-23T12:08:08.762Z,11.81
2019-02-23T12:09:08.825Z,11.84
2019-02-23T12:10:08.757Z,11.86
2019-02-23T12:11:08.755Z,11.86
2019-02-23T12:12:08.748Z,11.60
2019-02-23T12:13:08.747Z,11.51
2019-02-23T12:14:08.746Z,11.48
2019-02-23T12:15:08.743Z,11.40
2019-02-23T12:16:08.738Z,11.26
2019-02-23T12:17:08.736Z,11.25
2019-02-23T12:18:08.732Z,11.22
2019-02-23T12:19:08.731Z,11.15
2019-02-23T12:20:08.725Z,11.14
2019-02-23T12:21:08.724Z,11.15
2019-02-23T12:22:12.320Z,10.92
2019-02-23T12:23:08.717Z,10.89
2019-02-23T12:24:08.714Z,10.96
2019-02-23T12:25:08.711Z,10.97
2019-02-23T12:26:08.708Z,10.97
2019-02-23T12:27:08.706Z,11.12
2019-02-23T12:28:08.701Z,11.08
2019-02-23T12:29:08.699Z,11.12
2019-02-23T12:30:08.694Z,11.35
2019-02-23T12:31:08.692Z,11.40
2019-02-23T12:32:08.689Z,11.23
2019-02-23T12:33:08.685Z,11.26
2019-02-23T12:34:08.683Z,11.33
2019-02-23T12:35:08.678Z,11.40
2019-02-23T12:36:08.675Z,11.40
2019-02-23T12:37:08.671Z,11.52
2019-02-23T12:38:08.667Z,11.51
2019-02-23T12:39:08.665Z,11.44
2019-02-23T12:40:08.659Z,11.41
2019-02-23T12:41:08.657Z,11.44
2019-02-23T12:42:08.654Z,11.35
2019-02-23T12:43:08.652Z,11.22
2019-02-23T12:44:08.645Z,11.27
2019-02-23T12:45:08.644Z,11.37
2019-02-23T12:46:08.657Z,11.40
2019-02-23T12:47:08.637Z,11.44
2019-02-23T12:48:08.634Z,11.54
2019-02-23T12:49:08.631Z,11.37
2019-02-23T12:50:08.626Z,11.41
2019-02-23T12:51:08.626Z,11.22
2019-02-23T12:52:08.621Z,11.15
2019-02-23T12:53:08.617Z,11.19
2019-02-23T12:54:16.424Z,11.11
2019-02-23T12:55:08.698Z,11.22
2019-02-23T12:56:08.606Z,11.14
2019-02-23T12:57:08.603Z,11.17
2019-02-23T12:58:08.600Z,11.15
2019-02-23T12:59:08.597Z,11.30
2019-02-23T13:00:08.593Z,11.30
2019-02-23T13:01:08.589Z,11.35
2019-02-23T13:02:08.586Z,11.17
2019-02-23T13:03:08.583Z,11.22
2019-02-23T13:04:08.577Z,11.33
2019-02-23T13:05:08.573Z,11.45
2019-02-23T13:06:08.569Z,11.50
2019-02-23T13:07:08.568Z,11.50
2019-02-23T13:08:08.563Z,11.40
2019-02-23T13:09:08.560Z,11.35
2019-02-23T13:10:11.213Z,11.36
2019-02-23T13:11:08.551Z,11.36
2019-02-23T13:12:08.548Z,11.27